Time;durP1;ratioP1;P1;durP2;ratioP2;P2;SDS_P1;SDS_P2;PMS_P1;PMS_P2;Temp;Humidity;BMP_temperature;BMP_pressure;BME280_temperature;BME280_humidity;BME280_pressure;Samples;Min_cycle;Max_cycle;Signal;HPM_P1;HPM_P2
2022/09/17 00:01:46;;;;;;;;;;;;;;;25.39;63.64;100427.97;5091673;28;20080;-82
2022/09/17 00:04:12;;;;;;;7.25;3.65;;;;;;;25.34;63.67;100408.44;5090982;28;19998;-82
2022/09/17 00:06:37;;;;;;;;;;;;;;;25.43;63.64;100420.81;5091326;28;20025;-82
2022/09/17 00:09:05;;;;;;;6.90;3.33;;;;;;;25.39;63.28;100419.94;5076290;28;20309;-81
2022/09/17 00:11:32;;;;;;;7.38;3.25;;;;;;;25.37;63.54;100410.19;5061518;28;20020;-81
2022/09/17 00:13:59;;;;;;;6.55;3.33;;;;;;;25.26;63.55;100394.28;5089774;28;20027;-81
2022/09/17 00:16:43;;;;;;;4.95;2.90;;;;;;;25.35;63.29;100407.53;5098940;28;20035;-81
2022/09/17 00:19:17;;;;;;;6.72;3.53;;;;;;;25.28;63.49;100399.63;5079297;28;20405;-82
2022/09/17 00:21:43;;;;;;;5.53;3.20;;;;;;;25.38;63.42;100403.94;5050608;28;20035;-81
2022/09/17 00:24:09;;;;;;;;;;;;;;;25.39;63.39;100419.94;5092788;28;20023;-83
2022/09/17 00:26:35;;;;;;;5.10;3.05;;;;;;;25.15;63.42;100386.38;5072128;28;19908;-83
2022/09/17 00:29:02;;;;;;;7.30;3.50;;;;;;;25.36;63.76;100414.66;5087842;28;20027;-83
2022/09/17 00:31:29;;;;;;;4.40;3.00;;;;;;;25.34;63.57;100411.13;5060082;28;20107;-82
2022/09/17 00:33:55;;;;;;;8.00;3.03;;;;;;;25.28;63.79;100424.56;5055085;28;20082;-83
2022/09/17 00:36:21;;;;;;;;;;;;;;;25.33;63.27;100422.69;5073823;28;20616;-83
2022/09/17 00:38:54;;;;;;;7.10;2.88;;;;;;;25.33;63.66;100411.13;5089251;28;19916;-82
2022/09/17 00:41:22;;;;;;;8.65;3.10;;;;;;;25.32;63.51;100410.25;5058448;28;20047;-83
2022/09/17 00:43:50;;;;;;;8.20;3.50;;;;;;;25.26;63.45;100414.78;5092780;28;20055;-82
2022/09/17 00:46:38;;;;;;;6.38;2.90;;;;;;;25.31;63.48;100420.94;5072984;28;20530;-82
2022/09/17 00:49:26;;;;;;;11.10;3.33;;;;;;;25.27;63.70;100417.41;5041849;28;20032;-83
2022/09/17 00:52:01;;;;;;;6.22;2.78;;;;;;;25.26;63.41;100404.09;5083420;28;20047;-83
2022/09/17 00:54:26;;;;;;;5.68;2.67;;;;;;;25.30;63.47;100416.53;5071180;28;20492;-83
2022/09/17 00:56:52;;;;;;;;;;;;;;;25.33;63.31;100421.81;5058771;28;20024;-83
2022/09/17 00:59:18;;;;;;;5.28;3.10;;;;;;;25.27;63.25;100419.22;5084571;28;19908;-83
2022/09/17 01:01:45;;;;;;;8.30;3.25;;;;;;;25.26;63.21;100417.47;5068369;28;20020;-83
2022/09/17 01:04:18;;;;;;;8.68;3.13;;;;;;;25.23;63.21;100413.03;5076347;28;20387;-83
2022/09/17 01:07:13;;;;;;;6.40;3.20;;;;;;;25.01;63.35;100369.63;5073419;28;20020;-83
2022/09/17 01:09:58;;;;;;;7.05;2.83;;;;;;;25.25;63.36;100413.91;5071834;28;20043;-83
2022/09/17 01:12:54;;;;;;;7.65;2.80;;;;;;;25.25;63.23;100415.69;5052449;28;20086;-83
2022/09/17 01:15:45;;;;;;;7.15;3.08;;;;;;;25.23;63.24;100389.00;5090296;28;20408;-83
2022/09/17 01:18:23;;;;;;;6.40;2.85;;;;;;;25.25;63.36;100388.94;5068300;28;20024;-83
2022/09/17 01:20:57;;;;;;;8.43;3.35;;;;;;;25.27;63.32;100379.13;5093012;28;20414;-83
2022/09/17 01:23:37;;;;;;;7.15;3.25;;;;;;;25.23;63.13;100380.06;5093522;28;20031;-83
2022/09/17 01:26:15;;;;;;;6.30;3.13;;;;;;;25.20;63.06;100386.34;5070357;28;20055;-83
2022/09/17 01:28:46;;;;;;;4.55;2.90;;;;;;;25.14;63.20;100389.06;5076374;28;20028;-83
2022/09/17 01:31:21;;;;;;;7.25;3.03;;;;;;;24.95;63.38;100357.19;5091605;28;20020;-83
2022/09/17 01:34:01;;;;;;;7.45;2.80;;;;;;;25.13;63.15;100376.59;5093639;28;20074;-83
2022/09/17 01:36:46;;;;;;;7.82;3.03;;;;;;;25.21;63.26;100389.88;5064592;28;20085;-83
2022/09/17 01:39:22;;;;;;;7.20;3.25;;;;;;;25.18;62.98;100391.66;5092902;28;20040;-83
2022/09/17 01:41:51;;;;;;;;;;;;;;;25.21;63.10;100392.56;5085676;28;20024;-82
2022/09/17 01:44:24;;;;;;;5.93;3.08;;;;;;;25.08;63.36;100376.66;5085162;28;19958;-83
2022/09/17 01:46:57;;;;;;;5.65;2.90;;;;;;;25.11;63.17;100370.41;5092276;28;20035;-83
2022/09/17 01:49:24;;;;;;;9.05;3.10;;;;;;;25.16;63.39;100400.59;5089364;28;20020;-83
2022/09/17 01:51:50;;;;;;;6.82;3.30;;;;;;;25.10;62.93;100382.84;5055449;28;20085;-83
2022/09/17 01:54:27;;;;;;;6.75;3.08;;;;;;;25.18;63.01;100385.44;5086098;28;20020;-82
2022/09/17 01:57:05;;;;;;;8.85;3.38;;;;;;;25.11;62.96;100360.59;5069620;28;20409;-83
2022/09/17 01:59:40;;;;;;;5.20;2.80;;;;;;;25.10;63.06;100377.50;5067785;28;20020;-83
2022/09/17 02:02:20;;;;;;;8.48;2.97;;;;;;;25.10;63.25;100365.94;5072273;28;20021;-83
2022/09/17 02:05:04;;;;;;;8.70;3.00;;;;;;;25.13;63.25;100360.56;5070936;28;20085;-83
2022/09/17 02:07:30;;;;;;;7.85;2.72;;;;;;;25.13;63.29;100376.59;5071588;28;20060;-83
2022/09/17 02:10:04;;;;;;;8.68;2.90;;;;;;;25.12;63.01;100367.69;5078005;28;20766;-83
2022/09/17 02:12:36;;;;;;;6.93;3.15;;;;;;;25.02;63.23;100366.06;5066225;28;20017;-83
2022/09/17 02:15:06;;;;;;;5.47;2.85;;;;;;;25.07;62.91;100361.53;5071024;28;20111;-83
2022/09/17 02:17:39;;;;;;;8.75;3.20;;;;;;;25.10;63.02;100374.84;5067495;28;20020;-83
2022/09/17 02:20:07;;;;;;;6.53;2.95;;;;;;;25.05;62.91;100349.09;5066683;28;20029;-82
2022/09/17 02:22:42;;;;;;;6.93;3.10;;;;;;;25.12;63.01;100372.16;5058955;28;20029;-83
2022/09/17 02:25:16;;;;;;;9.63;2.85;;;;;;;24.99;62.97;100339.34;5077598;28;20024;-82
2022/09/17 02:28:05;;;;;;;10.02;2.88;;;;;;;25.09;62.96;100358.84;5111612;28;20395;-82
2022/09/17 02:30:31;;;;;;;8.00;3.10;;;;;;;25.10;63.03;100361.47;5080760;28;20021;-83
2022/09/17 02:32:57;;;;;;;;;;;;;;;25.08;62.89;100371.31;5068809;28;20039;-82
2022/09/17 02:35:22;;;;;;;5.18;2.92;;;;;;;24.97;63.11;100347.38;5073679;28;19994;-83
2022/09/17 02:37:48;;;;;;;;;;;;;;;25.14;62.82;100365.88;5091191;28;20048;-83
2022/09/17 02:40:15;;;;;;;8.68;3.10;;;;;;;25.07;63.09;100357.97;5075531;28;19912;-82
2022/09/17 02:43:05;;;;;;;8.73;3.38;;;;;;;24.95;63.11;100332.28;5080397;28;20045;-83
2022/09/17 02:45:50;;;;;;;6.55;3.08;;;;;;;25.08;63.15;100347.28;5051568;28;20024;-82
2022/09/17 02:48:27;;;;;;;5.70;2.60;;;;;;;25.07;63.01;100353.50;5091233;28;20024;-83
2022/09/17 02:51:04;;;;;;;5.22;2.80;;;;;;;25.05;63.03;100346.44;5060215;28;20090;-83
2022/09/17 02:53:53;;;;;;;6.82;2.78;;;;;;;24.97;63.12;100344.72;5090318;28;20036;-83
2022/09/17 02:56:33;;;;;;;7.70;2.97;;;;;;;25.08;62.88;100354.38;5091872;28;20027;-83
2022/09/17 02:59:14;;;;;;;7.43;3.03;;;;;;;25.08;62.96;100347.28;5087132;28;20024;-83
2022/09/17 03:01:51;;;;;;;6.72;3.05;;;;;;;25.04;62.78;100336.63;5071928;28;20039;-83
2022/09/17 03:04:19;;;;;;;6.25;2.88;;;;;;;25.07;63.04;100333.94;5085044;28;20024;-83
2022/09/17 03:06:46;;;;;;;6.03;2.88;;;;;;;25.06;63.13;100334.81;5065388;28;20032;-83
2022/09/17 03:09:15;;;;;;;7.45;3.05;;;;;;;25.03;62.80;100335.75;5067153;28;20035;-83
2022/09/17 03:11:41;;;;;;;8.23;3.05;;;;;;;24.86;63.06;100303.91;5086712;28;20021;-82
2022/09/17 03:14:06;;;;;;;;;;;;;;;25.07;62.79;100336.59;5053718;28;20021;-82
2022/09/17 03:16:32;;;;;;;5.38;2.55;;;;;;;24.91;63.29;100320.78;5081900;28;19912;-83
2022/09/17 03:18:57;;;;;;;;;;;;;;;25.06;63.15;100329.47;5057973;28;20153;-82
2022/09/17 03:21:23;;;;;;;5.93;3.00;;;;;;;24.95;62.78;100317.13;5060575;28;20011;-83
2022/09/17 03:23:48;;;;;;;;;;;;;;;25.06;62.87;100316.13;5070975;28;20409;-83
2022/09/17 03:26:14;;;;;;;7.13;2.80;;;;;;;25.04;62.90;100313.50;5071501;28;20012;-83
2022/09/17 03:28:39;;;;;;;;;;;;;;;25.00;63.17;100311.75;5071499;28;20028;-84
2022/09/17 03:31:05;;;;;;;7.55;3.00;;;;;;;24.93;63.09;100292.25;5097557;28;20420;-83
2022/09/17 03:33:31;;;;;;;;;;;;;;;25.05;62.81;100301.00;5056258;28;20101;-84
2022/09/17 03:35:57;;;;;;;5.30;2.67;;;;;;;25.00;63.19;100295.72;5046280;28;20006;-84
2022/09/17 03:38:22;;;;;;;;;;;;;;;25.03;62.96;100297.47;5064814;28;20048;-84
2022/09/17 03:41:08;;;;;;;9.30;3.53;;;;;;;24.88;62.92;100269.16;5058917;28;19995;-83
2022/09/17 03:43:34;;;;;;;8.93;3.17;;;;;;;24.78;62.83;100255.03;5091554;28;20032;-83
2022/09/17 03:45:59;;;;;;;;;;;;;;;25.01;62.79;100281.44;5059754;28;20401;-83
2022/09/17 03:48:25;;;;;;;8.40;3.13;;;;;;;24.95;63.11;100287.75;5075998;28;19961;-84
2022/09/17 03:50:51;;;;;;;;;;;;;;;24.97;63.21;100282.38;5056507;28;20078;-84
2022/09/17 03:53:17;;;;;;;6.13;2.83;;;;;;;24.93;62.95;100283.34;5087364;28;19916;-84
2022/09/17 03:55:42;;;;;;;;;;;;;;;25.01;63.00;100300.16;5068395;28;20028;-84
2022/09/17 03:58:08;;;;;;;5.45;2.83;;;;;;;24.71;62.89;100262.25;5076382;28;20478;-84
2022/09/17 04:00:35;;;;;;;;;;;;;;;24.98;62.99;100300.22;5071952;28;20477;-84
2022/09/17 04:03:04;;;;;;;4.15;2.83;;;;;;;24.51;62.83;100242.91;5058266;28;19908;-84
2022/09/17 04:05:29;;;;;;;6.22;3.05;;;;;;;24.86;63.24;100303.91;5056078;28;20481;-83
2022/09/17 04:07:55;;;;;;;;;;;;;;;24.95;62.93;100305.56;5086479;28;20119;-83
2022/09/17 04:10:22;;;;;;;4.90;2.80;;;;;;;24.94;62.85;100309.16;5074104;28;20298;-82
2022/09/17 04:12:48;;;;;;;7.18;2.60;;;;;;;24.59;63.02;100246.38;5052803;28;20413;-81
2022/09/17 04:15:13;;;;;;;;;;;;;;;24.92;63.01;100289.59;5081295;28;20032;-81
2022/09/17 04:17:39;;;;;;;4.80;2.40;;;;;;;24.92;62.98;100286.94;5073676;28;19912;-82
2022/09/17 04:20:05;;;;;;;;;;;;;;;24.96;63.09;100291.31;5070990;28;20026;-82
2022/09/17 04:22:31;;;;;;;7.65;3.10;;;;;;;24.91;62.82;100296.72;5092372;28;19908;-82
2022/09/17 04:24:56;;;;;;;;;;;;;;;24.91;62.85;100291.38;5074818;28;20031;-83
2022/09/17 04:27:22;;;;;;;5.05;2.80;;;;;;;24.89;62.92;100289.63;5086009;28;19912;-83
2022/09/17 04:29:48;;;;;;;5.25;2.60;;;;;;;24.86;62.90;100276.31;5071257;28;20036;-83
2022/09/17 04:32:14;;;;;;;;;;;;;;;24.89;62.90;100281.59;5071021;28;20035;-84
2022/09/17 04:34:39;;;;;;;7.85;2.97;;;;;;;24.81;63.01;100280.81;5075209;28;20288;-82
2022/09/17 04:37:05;;;;;;;;;;;;;;;24.90;63.00;100296.75;5076351;28;20462;-83
2022/09/17 04:39:30;;;;;;;7.32;3.10;;;;;;;24.75;63.17;100273.78;5067755;28;19948;-82
2022/09/17 04:41:56;;;;;;;;;;;;;;;24.90;62.85;100289.59;5082430;28;20077;-83
2022/09/17 04:44:21;;;;;;;8.35;2.72;;;;;;;24.74;63.00;100275.56;5084124;28;20022;-83
2022/09/17 04:46:47;;;;;;;;;;;;;;;24.90;63.02;100281.59;5085877;28;20557;-82
2022/09/17 04:49:12;;;;;;;6.28;2.90;;;;;;;24.85;62.97;100270.09;5082732;28;19912;-82
2022/09/17 04:51:38;;;;;;;;;;;;;;;24.89;63.02;100270.91;5076892;28;20456;-81
2022/09/17 04:54:03;;;;;;;9.00;3.10;;;;;;;24.77;63.12;100248.81;5076129;28;19916;-81
2022/09/17 04:56:29;;;;;;;;;;;;;;;24.90;62.81;100259.34;5077133;28;20025;-81
2022/09/17 04:58:55;;;;;;;10.80;3.20;;;;;;;24.73;63.02;100235.53;5102021;27;19923;-81
2022/09/17 05:01:21;;;;;;;4.93;2.88;;;;;;;24.69;63.09;100224.00;5084851;28;20087;-82
2022/09/17 05:03:46;;;;;;;;;;;;;;;24.85;63.02;100248.72;5094559;28;20107;-82
2022/09/17 05:06:12;;;;;;;7.10;2.95;;;;;;;24.54;63.13;100189.50;5093857;28;19908;-83
2022/09/17 05:08:37;;;;;;;;;;;;;;;24.87;62.77;100236.25;5072797;28;20063;-83
2022/09/17 05:11:03;;;;;;;7.63;2.75;;;;;;;24.61;63.02;100191.16;5076623;28;20053;-82
2022/09/17 05:13:29;;;;;;;;;;;;;;;24.83;62.87;100234.50;5088961;28;20118;-82
2022/09/17 05:15:58;;;;;;;8.57;3.08;;;;;;;24.83;62.91;100244.28;5079289;28;19919;-83
2022/09/17 05:18:24;;;;;;;6.95;2.78;;;;;;;24.79;63.03;100247.00;5065418;28;20489;-83
2022/09/17 05:20:50;;;;;;;7.38;3.17;;;;;;;24.54;62.94;100202.84;5081439;28;20031;-83
2022/09/17 05:23:19;;;;;;;;;;;;;;;24.86;62.94;100257.63;5091906;28;20020;-82
2022/09/17 05:25:44;;;;;;;5.40;2.92;;;;;;;24.76;62.86;100241.72;5113874;28;19908;-82
2022/09/17 05:28:10;;;;;;;;;;;;;;;24.82;62.94;100247.88;5109601;28;20149;-82
2022/09/17 05:30:35;;;;;;;6.65;2.97;;;;;;;24.57;63.02;100210.78;5092207;28;20361;-81
2022/09/17 05:33:02;;;;;;;;;;;;;;;24.78;63.09;100247.91;5106998;28;20024;-85
2022/09/17 05:35:29;;;;;;;9.73;3.40;;;;;;;24.63;63.28;100209.84;5087642;28;20358;-81
2022/09/17 05:38:03;;;;;;;10.43;3.35;;;;;;;24.74;63.13;100226.59;5102925;28;20037;-82
2022/09/17 05:40:31;;;;;;;8.15;3.03;;;;;;;24.70;63.08;100208.84;5065979;28;20170;-82
2022/09/17 05:42:58;;;;;;;9.52;2.92;;;;;;;24.30;63.01;100138.16;5074804;28;20027;-82
2022/09/17 05:45:24;;;;;;;6.88;3.08;;;;;;;24.71;63.28;100221.31;5074981;28;20114;-82
2022/09/17 05:47:56;;;;;;;;;;;;;;;24.79;63.24;100231.00;5061017;28;20150;-82
2022/09/17 05:50:33;;;;;;;9.25;3.17;;;;;;;24.75;63.31;100234.59;5075613;28;19908;-82
2022/09/17 05:53:10;;;;;;;6.45;3.30;;;;;;;24.31;63.22;100163.94;5057332;28;20025;-82
2022/09/17 05:55:35;;;;;;;10.57;3.20;;;;;;;24.56;63.14;100198.38;5069270;28;20024;-81
2022/09/17 05:58:07;;;;;;;;;;;;;;;24.82;62.95;100245.22;5101877;28;20034;-82
2022/09/17 06:00:33;;;;;;;7.47;3.38;;;;;;;24.72;63.37;100231.06;5095194;28;20010;-81
2022/09/17 06:02:59;;;;;;;;;;;;;;;24.79;63.39;100232.78;5081520;28;20055;-84
2022/09/17 06:05:25;;;;;;;8.88;3.20;;;;;;;24.38;63.07;100167.41;5101223;28;19912;-82
2022/09/17 06:07:53;;;;;;;;;;;;;;;24.79;63.21;100239.00;5090422;28;20507;-82
2022/09/17 06:10:18;;;;;;;8.00;3.38;;;;;;;24.75;63.06;100236.41;5095536;28;19935;-82
2022/09/17 06:12:44;;;;;;;;;;;;;;;24.80;63.20;100245.22;5068996;28;20421;-81
2022/09/17 06:15:13;;;;;;;4.82;2.78;;;;;;;24.76;63.09;100238.16;5086583;28;19913;-82
2022/09/17 06:17:39;;;;;;;8.13;2.97;;;;;;;24.74;63.40;100243.53;5086819;28;20027;-81
2022/09/17 06:20:05;;;;;;;8.35;3.38;;;;;;;24.77;63.34;100234.59;5093109;28;20027;-83
2022/09/17 06:22:31;;;;;;;5.75;2.70;;;;;;;24.72;63.08;100226.66;5059706;28;20066;-81
2022/09/17 06:24:58;;;;;;;;;;;;;;;24.78;62.96;100229.22;5067859;28;20457;-82
2022/09/17 06:27:32;;;;;;;7.65;3.10;;;;;;;24.79;62.93;100220.31;5092758;28;19911;-83
2022/09/17 06:29:58;;;;;;;6.03;2.72;;;;;;;24.71;62.86;100213.31;5083699;28;20481;-83
2022/09/17 06:32:24;;;;;;;5.78;2.65;;;;;;;24.77;62.82;100232.78;5070658;28;20028;-81
2022/09/17 06:34:50;;;;;;;5.00;2.95;;;;;;;24.57;63.07;100206.38;5069293;28;20079;-82
2022/09/17 06:37:18;;;;;;;;;;;;;;;24.88;64.58;100248.69;5093146;28;20520;-84
2022/09/17 06:39:44;;;;;;;12.40;3.65;;;;;;;24.68;64.44;100238.25;5083332;28;19998;-83
2022/09/17 06:42:11;;;;;;;15.32;3.38;;;;;;;24.57;64.18;100211.72;5087688;28;20023;-81
2022/09/17 06:44:37;;;;;;;8.82;3.30;;;;;;;24.77;63.50;100250.63;5092570;28;20028;-84
2022/09/17 06:47:02;;;;;;;;;;;;;;;24.85;63.65;100251.41;5088694;28;20024;-83
2022/09/17 06:49:30;;;;;;;7.70;3.17;;;;;;;24.69;63.19;100234.69;5095270;28;19922;-83
2022/09/17 06:51:55;;;;;;;5.82;3.30;;;;;;;24.68;62.99;100232.94;5095810;28;20026;-82
2022/09/17 06:54:21;;;;;;;;;;;;;;;24.85;62.91;100251.41;5092334;28;20106;-82
2022/09/17 06:56:47;;;;;;;5.85;3.42;;;;;;;24.81;62.92;100249.66;5092298;28;19915;-83
2022/09/17 06:59:12;;;;;;;;;;;;;;;24.79;63.01;100239.00;5086203;28;20557;-83
2022/09/17 07:01:38;;;;;;;7.43;3.17;;;;;;;24.81;63.12;100233.66;5070886;28;19916;-83
2022/09/17 07:04:03;;;;;;;;;;;;;;;24.84;62.95;100240.72;5075026;28;20036;-82
2022/09/17 07:06:29;;;;;;;7.47;3.55;;;;;;;24.81;62.98;100244.34;5075067;28;19956;-82
2022/09/17 07:08:54;;;;;;;;;;;;;;;24.84;63.03;100246.94;5073402;28;20543;-81
2022/09/17 07:11:20;;;;;;;7.35;3.03;;;;;;;24.76;62.95;100238.16;5072844;28;19962;-83
2022/09/17 07:13:45;;;;;;;;;;;;;;;24.83;62.83;100242.53;5056430;28;20527;-82
2022/09/17 07:16:11;;;;;;;5.95;3.05;;;;;;;24.74;62.83;100237.28;5081741;28;19912;-82
2022/09/17 07:18:38;;;;;;;;;;;;;;;24.86;62.93;100252.28;5078415;28;20497;-82
2022/09/17 07:21:05;;;;;;;7.20;3.20;;;;;;;24.79;62.80;100255.03;5077141;28;20396;-83
2022/09/17 07:23:32;;;;;;;7.60;3.20;;;;;;;24.78;62.91;100252.38;5056344;28;20111;-82
2022/09/17 07:26:00;;;;;;;7.43;2.83;;;;;;;24.83;62.70;100257.66;5061199;28;20047;-84
2022/09/17 07:28:27;;;;;;;6.07;2.92;;;;;;;24.84;62.85;100259.44;5061927;28;20086;-83
2022/09/17 07:30:54;;;;;;;5.85;2.83;;;;;;;24.80;62.85;100253.22;5087982;28;20119;-83
2022/09/17 07:33:23;;;;;;;6.40;3.00;;;;;;;24.75;63.00;100249.75;5088970;28;20032;-83
2022/09/17 07:35:53;;;;;;;5.57;3.25;;;;;;;24.69;62.75;100240.03;5069218;28;20027;-82
2022/09/17 07:38:19;;;;;;;9.05;3.28;;;;;;;24.85;63.08;100256.75;5100238;28;20089;-83
2022/09/17 07:40:51;;;;;;;;;;;;;;;24.89;62.75;100258.47;5083006;28;20024;-83
2022/09/17 07:43:17;;;;;;;6.07;3.13;;;;;;;24.84;62.78;100254.97;5086931;28;19983;-83
2022/09/17 07:45:42;;;;;;;;;;;;;;;24.88;63.14;100253.16;5061388;28;20070;-82
2022/09/17 07:48:08;;;;;;;9.18;3.25;;;;;;;24.61;63.18;100212.53;5092913;28;19908;-83
2022/09/17 07:50:33;;;;;;;;;;;;;;;24.85;63.08;100250.50;5089556;28;20432;-83
2022/09/17 07:53:00;;;;;;;5.55;3.30;;;;;;;24.71;63.06;100226.66;5078329;28;19968;-83
2022/09/17 07:55:26;;;;;;;5.50;2.95;;;;;;;24.83;63.23;100238.94;5079302;28;20020;-83
2022/09/17 07:57:51;;;;;;;;;;;;;;;24.82;63.28;100237.19;5094364;28;20023;-82
2022/09/17 08:00:18;;;;;;;4.35;3.22;;;;;;;24.80;63.21;100237.22;5089747;28;19912;-82
2022/09/17 08:02:43;;;;;;;6.97;3.25;;;;;;;24.79;63.26;100232.78;5078061;28;20521;-82
2022/09/17 08:05:09;;;;;;;;;;;;;;;24.87;62.97;100233.56;5095658;28;20101;-82
2022/09/17 08:07:34;;;;;;;4.57;2.78;;;;;;;24.39;63.04;100167.38;5088438;28;19911;-82
2022/09/17 08:10:00;;;;;;;;;;;;;;;24.82;63.20;100242.53;5078797;28;20397;-83
2022/09/17 08:12:39;;;;;;;5.78;2.95;;;;;;;24.78;63.21;100241.69;5072788;28;20361;-84
2022/09/17 08:15:09;;;;;;;5.75;3.38;;;;;;;24.23;63.47;100147.13;5061169;28;20630;-83
2022/09/17 08:17:36;;;;;;;5.25;2.83;;;;;;;24.24;63.25;100140.03;5067799;28;20035;-84
2022/09/17 08:20:03;;;;;;;5.45;3.08;;;;;;;24.41;63.50;100172.72;5079420;28;20044;-83
2022/09/17 08:22:30;;;;;;;5.15;3.00;;;;;;;24.49;63.11;100172.63;5090793;28;20028;-82
2022/09/17 08:24:56;;;;;;;6.72;3.17;;;;;;;24.51;63.04;100168.16;5098369;28;20024;-83
2022/09/17 08:27:21;;;;;;;;;;;;;;;24.88;63.37;100219.28;5089717;28;20035;-83
2022/09/17 08:29:47;;;;;;;6.18;3.30;;;;;;;24.54;63.37;100166.34;5096811;28;20381;-83
2022/09/17 08:32:12;;;;;;;;;;;;;;;24.89;63.50;100222.84;5096393;28;20102;-82
2022/09/17 08:34:38;;;;;;;6.43;3.50;;;;;;;24.86;63.68;100217.56;5093722;28;19908;-83
2022/09/17 08:37:03;;;;;;;;;;;;;;;24.85;63.22;100224.69;5099132;28;20044;-82
2022/09/17 08:39:29;;;;;;;6.60;3.30;;;;;;;24.67;63.65;100180.41;5087736;28;19971;-83
2022/09/17 08:42:00;;;;;;;;;;;;;;;24.85;63.56;100214.00;5075751;28;20032;-82
2022/09/17 08:44:31;;;;;;;6.72;3.55;;;;;;;24.67;63.74;100183.09;5075910;28;19912;-82
2022/09/17 08:47:05;;;;;;;6.85;3.40;;;;;;;24.73;64.04;100206.16;5064732;28;20400;-82
2022/09/17 08:49:36;;;;;;;7.60;4.07;;;;;;;24.76;63.56;100201.66;5075797;28;20059;-82
2022/09/17 08:52:19;;;;;;;10.35;3.72;;;;;;;24.73;63.92;100200.81;5076791;28;20027;-81
2022/09/17 08:55:02;;;;;;;4.10;3.28;;;;;;;24.75;63.86;100207.03;5080742;28;20088;-82
2022/09/17 08:57:43;;;;;;;7.88;3.70;;;;;;;24.67;63.80;100185.75;5100115;28;20023;-81
2022/09/17 09:00:13;;;;;;;6.10;3.85;;;;;;;24.69;63.75;100180.41;5092591;28;20525;-82
2022/09/17 09:03:09;;;;;;;5.15;3.33;;;;;;;24.47;63.89;100147.72;5071835;28;20086;-81
2022/09/17 09:05:45;;;;;;;8.80;3.70;;;;;;;24.64;63.89;100175.13;5087537;28;20043;-80
2022/09/17 09:08:34;;;;;;;6.18;3.58;;;;;;;24.57;64.01;100163.66;5104702;28;20100;-82
2022/09/17 09:11:05;;;;;;;6.13;3.40;;;;;;;24.68;63.81;100186.63;5089397;28;20024;-82
2022/09/17 09:13:35;;;;;;;6.13;3.63;;;;;;;24.53;63.99;100153.00;5069215;28;20016;-82
2022/09/17 09:16:28;;;;;;;5.70;3.80;;;;;;;24.65;63.95;100160.84;5075955;28;20111;-83
2022/09/17 09:18:55;;;;;;;6.30;3.90;;;;;;;24.68;64.28;100166.19;5058355;28;20033;-84
2022/09/17 09:21:23;;;;;;;8.43;3.65;;;;;;;24.68;63.97;100157.25;5071199;28;20016;-83
2022/09/17 09:23:57;;;;;;;5.63;3.28;;;;;;;24.68;64.02;100160.84;5090608;28;20031;-84
2022/09/17 09:26:35;;;;;;;6.10;3.40;;;;;;;24.69;63.99;100157.25;5082264;28;20027;-81
2022/09/17 09:29:28;;;;;;;4.95;3.28;;;;;;;24.67;64.15;100151.03;5104276;28;20015;-82
2022/09/17 09:31:56;;;;;;;6.13;3.47;;;;;;;24.68;64.02;100142.16;5107314;28;20080;-89
2022/09/17 09:34:23;;;;;;;4.47;3.38;;;;;;;24.62;64.04;100128.88;5078437;28;20036;-88
2022/09/17 09:36:49;;;;;;;5.22;3.40;;;;;;;24.73;63.96;100144.75;5107280;27;20016;-86
2022/09/17 09:39:17;;;;;;;;;;;;;;;24.71;63.93;100149.22;5076101;28;20024;-89
2022/09/17 09:41:48;;;;;;;5.80;3.50;;;;;;;24.71;63.90;100141.22;5088305;28;20381;-88
2022/09/17 09:44:15;;;;;;;5.28;3.72;;;;;;;24.68;64.11;100131.47;5079329;28;20024;-88
2022/09/17 09:47:07;;;;;;;5.18;3.65;;;;;;;24.68;64.05;100136.81;5095006;28;20073;-89
2022/09/17 09:50:07;;;;;;;5.20;3.70;;;;;;;24.69;64.15;100138.56;5068055;28;20020;-90
2022/09/17 09:52:58;;;;;;;6.50;3.78;;;;;;;24.62;63.88;100128.88;5067756;28;20035;-86
2022/09/17 09:55:49;;;;;;;6.85;3.42;;;;;;;24.68;64.14;100133.22;5076259;28;20096;-88
2022/09/17 09:58:27;;;;;;;6.03;3.40;;;;;;;24.73;64.13;100129.59;5078191;28;20024;-88
2022/09/17 10:00:54;;;;;;;5.00;3.50;;;;;;;24.67;64.01;100120.81;5087971;28;20505;-90
2022/09/17 10:03:31;;;;;;;5.90;3.42;;;;;;;24.73;64.07;100121.59;5077745;28;20032;-89
2022/09/17 10:05:58;;;;;;;6.15;4.00;;;;;;;24.61;64.04;100112.88;5079333;28;20028;-88
2022/09/17 10:08:25;;;;;;;4.90;3.40;;;;;;;24.75;64.00;100124.25;5086863;28;20027;-88
2022/09/17 10:11:02;;;;;;;4.90;3.78;;;;;;;24.75;63.95;100127.78;5084178;28;20020;-89
2022/09/17 10:13:32;;;;;;;5.50;3.90;;;;;;;24.76;64.08;100123.31;5072711;28;20080;-91
2022/09/17 10:16:23;;;;;;;4.82;3.90;;;;;;;24.71;64.14;100120.72;5075248;28;20020;-90
2022/09/17 10:19:13;;;;;;;5.32;3.63;;;;;;;24.68;64.02;100118.13;5062223;28;20063;-85
2022/09/17 10:21:42;;;;;;;8.23;3.72;;;;;;;24.67;64.10;100110.13;5092972;28;20077;-87
2022/09/17 10:24:21;;;;;;;7.93;3.92;;;;;;;24.52;64.11;100081.84;5088294;28;20509;-90
2022/09/17 10:26:48;;;;;;;6.07;3.50;;;;;;;24.75;64.12;100109.09;5088565;28;20030;-91
2022/09/17 10:29:19;;;;;;;5.45;3.85;;;;;;;24.78;63.90;100113.50;5060052;28;20089;-91
2022/09/17 10:32:01;;;;;;;7.18;3.80;;;;;;;24.75;64.11;100114.44;5076848;28;20065;-92
2022/09/17 10:34:30;;;;;;;6.85;3.97;;;;;;;24.65;64.28;100102.13;5071853;28;20500;-88
2022/09/17 10:36:57;;;;;;;6.05;3.85;;;;;;;24.63;64.23;100092.38;5060389;27;20047;-92
2022/09/17 10:39:43;;;;;;;6.45;4.03;;;;;;;24.82;64.25;100101.00;5071014;28;20054;-91
2022/09/17 10:42:16;;;;;;;6.50;4.32;;;;;;;24.69;64.22;100082.47;5072115;28;20091;-92
2022/09/17 10:44:56;;;;;;;7.57;4.03;;;;;;;24.67;64.18;100080.75;5068911;28;20059;-90
2022/09/17 10:47:29;;;;;;;5.53;3.83;;;;;;;24.60;64.12;100069.28;5061098;28;20080;-90
2022/09/17 10:50:00;;;;;;;6.32;4.10;;;;;;;24.56;64.25;100055.09;5088986;28;20425;-91
2022/09/17 10:52:37;;;;;;;4.63;3.83;;;;;;;24.61;64.35;100057.69;5083553;28;20039;-90
2022/09/17 10:55:27;;;;;;;5.75;4.07;;;;;;;24.78;64.07;100082.34;5093867;28;20020;-91
2022/09/17 10:58:31;;;;;;;4.70;3.90;;;;;;;24.76;64.28;100075.25;5097908;28;20042;-93
2022/09/17 11:01:26;;;;;;;5.53;3.80;;;;;;;24.80;64.01;100068.97;5097052;28;20412;-94
2022/09/17 11:04:23;;;;;;;5.38;3.80;;;;;;;24.75;64.21;100068.16;5100062;27;20059;-92
2022/09/17 11:07:17;;;;;;;5.53;3.90;;;;;;;24.06;64.17;99941.94;5075800;27;20031;-91
2022/09/17 11:09:46;;;;;;;8.10;3.92;;;;;;;24.76;64.27;100061.91;5078298;28;20504;-90
2022/09/17 11:12:59;;;;;;;5.45;3.78;;;;;;;24.74;64.36;100048.59;5100984;27;20015;-90
2022/09/17 11:15:54;;;;;;;6.00;4.13;;;;;;;24.77;64.20;100053.88;5019514;28;20339;-91
2022/09/17 11:18:29;;;;;;;5.80;3.75;;;;;;;24.77;64.22;100053.88;5030599;28;20036;-91
2022/09/17 11:21:16;;;;;;;4.65;3.83;;;;;;;24.62;64.12;100010.50;5079068;28;20390;-90
2022/09/17 11:24:04;;;;;;;4.75;3.72;;;;;;;24.75;64.30;100029.00;5113552;27;20102;-89
2022/09/17 11:26:31;;;;;;;4.97;4.00;;;;;;;24.75;64.61;100030.78;5105451;27;20107;-89
2022/09/17 11:29:23;;;;;;;5.07;3.95;;;;;;;24.75;64.43;100030.78;5060343;28;20020;-90
2022/09/17 11:32:17;;;;;;;7.13;3.92;;;;;;;24.76;64.50;100025.44;5096996;27;20075;-88
2022/09/17 11:34:59;;;;;;;4.80;3.97;;;;;;;24.79;64.57;100013.81;5067074;28;20044;-88
2022/09/17 11:37:30;;;;;;;9.00;4.65;;;;;;;24.84;64.35;100009.25;5094742;28;20130;-88
2022/09/17 11:40:01;;;;;;;5.18;4.05;;;;;;;24.90;64.27;100009.16;5053792;28;20092;-89
2022/09/17 11:42:36;;;;;;;6.35;4.20;;;;;;;24.78;64.34;99993.34;5053685;28;20024;-89
2022/09/17 11:45:17;;;;;;;6.00;4.10;;;;;;;24.99;64.08;100014.34;5074072;28;20056;-88
2022/09/17 11:47:55;;;;;;;6.57;4.15;;;;;;;25.01;63.99;100014.31;5079508;28;20039;-90
2022/09/17 11:50:43;;;;;;;5.72;4.00;;;;;;;24.93;64.35;100001.13;5070571;28;20033;-90
2022/09/17 11:53:24;;;;;;;5.03;4.30;;;;;;;24.97;64.27;99996.56;5053710;28;20097;-88
2022/09/17 11:55:51;;;;;;;7.22;4.65;;;;;;;25.16;63.80;99989.13;5074091;28;20054;-89
2022/09/17 11:58:33;;;;;;;7.45;4.70;;;;;;;25.18;63.50;99988.16;5075396;28;20088;-90
2022/09/17 12:04:36;;;;;;;9.40;4.75;;;;;;;25.05;64.25;99983.09;5080608;28;20414;-94